Time;durP1;ratioP1;P1;durP2;ratioP2;P2;SDS_P1;SDS_P2;PMS_P1;PMS_P2;Temp;Humidity;BMP_temperature;BMP_pressure;BME280_temperature;BME280_humidity;BME280_pressure;Samples;Min_cycle;Max_cycle;Signal;HPM_P1;HPM_P2
2021/12/11 00:02:05;;;;;;;55.03;26.65;;;4.10;99.90;;;;;;5122490;27;20293;-74
2021/12/11 00:04:37;;;;;;;67.20;27.23;;;4.10;99.90;;;;;;5121963;27;20202;-71
2021/12/11 00:07:08;;;;;;;54.97;25.95;;;4.10;99.90;;;;;;5123776;27;20202;-71
2021/12/11 00:09:41;;;;;;;53.10;27.88;;;4.10;99.90;;;;;;5148439;27;20249;-71
2021/12/11 00:12:13;;;;;;;64.65;25.75;;;4.10;99.90;;;;;;5141759;27;20217;-71
2021/12/11 00:14:44;;;;;;;58.28;25.63;;;4.10;99.90;;;;;;5122937;27;20230;-71
2021/12/11 00:17:12;;;;;;;61.80;26.90;;;4.10;99.90;;;;;;5123610;27;20183;-72
2021/12/11 00:19:41;;;;;;;48.60;24.05;;;4.10;99.90;;;;;;5122441;27;20305;-72
2021/12/11 00:22:12;;;;;;;47.75;24.95;;;4.10;99.90;;;;;;5124112;27;20207;-72
2021/12/11 00:24:42;;;;;;;59.15;30.40;;;4.10;99.90;;;;;;5123322;27;20203;-71
2021/12/11 00:27:14;;;;;;;51.78;26.40;;;4.10;99.90;;;;;;5123430;27;20262;-74
2021/12/11 00:29:42;;;;;;;50.42;24.58;;;4.10;99.90;;;;;;5121602;27;20215;-74
2021/12/11 00:32:19;;;;;;;54.65;24.33;;;4.00;99.90;;;;;;5120914;27;20721;-71
2021/12/11 00:34:48;;;;;;;55.90;25.33;;;4.10;99.90;;;;;;5120527;27;20245;-71
2021/12/11 00:37:19;;;;;;;63.60;28.33;;;4.00;99.90;;;;;;5120510;27;20928;-71
2021/12/11 00:39:52;;;;;;;50.03;24.98;;;4.10;99.90;;;;;;5121000;27;20305;-72
2021/12/11 00:42:22;;;;;;;52.53;26.63;;;4.10;99.90;;;;;;5122390;27;20206;-71
2021/12/11 00:44:52;;;;;;;50.45;26.77;;;4.10;99.90;;;;;;5120207;27;20206;-71
2021/12/11 00:47:23;;;;;;;54.15;28.30;;;4.10;99.90;;;;;;5120499;27;20209;-70
2021/12/11 00:49:54;;;;;;;53.17;25.42;;;4.10;99.90;;;;;;5120926;27;20829;-69
2021/12/11 00:52:33;;;;;;;47.13;23.88;;;4.10;99.90;;;;;;5120716;27;20195;-70
2021/12/11 00:55:06;;;;;;;53.42;27.42;;;4.10;99.90;;;;;;5120868;27;20203;-70
2021/12/11 00:57:34;;;;;;;58.33;25.25;;;4.20;99.90;;;;;;5121796;27;20286;-70
2021/12/11 01:00:09;;;;;;;58.50;26.27;;;4.20;99.90;;;;;;5121785;27;20618;-70
2021/12/11 01:02:38;;;;;;;53.90;24.08;;;4.20;99.90;;;;;;5120661;27;20293;-70
2021/12/11 01:05:08;;;;;;;51.63;24.85;;;4.20;99.90;;;;;;5120993;27;20199;-70
2021/12/11 01:07:38;;;;;;;48.13;24.70;;;4.10;99.90;;;;;;5119917;27;20285;-71
2021/12/11 01:10:12;;;;;;;49.28;23.52;;;4.20;99.90;;;;;;5120691;27;20596;-69
2021/12/11 01:12:47;;;;;;;48.08;25.70;;;4.10;99.90;;;;;;5120259;27;20208;-71
2021/12/11 01:15:25;;;;;;;54.85;28.05;;;4.10;99.90;;;;;;5120420;27;20848;-69
2021/12/11 01:18:03;;;;;;;57.35;25.05;;;4.10;99.90;;;;;;5120107;27;20218;-70
2021/12/11 01:20:48;;;;;;;53.65;27.23;;;4.10;99.90;;;;;;5120390;27;20282;-71
2021/12/11 01:23:29;;;;;;;55.95;27.15;;;4.10;99.90;;;;;;5120126;27;20208;-71
2021/12/11 01:26:01;;;;;;;54.22;25.17;;;4.10;99.90;;;;;;5120485;27;20218;-72
2021/12/11 01:28:29;;;;;;;54.13;26.55;;;4.10;99.90;;;;;;5120139;27;20199;-71
2021/12/11 01:31:00;;;;;;;53.03;26.83;;;4.10;99.90;;;;;;5119923;27;20194;-72
2021/12/11 01:33:28;;;;;;;58.78;27.55;;;4.10;99.90;;;;;;5119939;27;20282;-70
2021/12/11 01:35:56;;;;;;;58.88;26.55;;;4.10;99.90;;;;;;5120228;27;20198;-71
2021/12/11 01:38:27;;;;;;;51.10;25.63;;;4.10;99.90;;;;;;5119476;27;20792;-70
2021/12/11 01:41:00;;;;;;;55.97;25.58;;;4.10;99.90;;;;;;5119784;27;20195;-70
2021/12/11 01:43:30;;;;;;;51.47;25.25;;;4.10;99.90;;;;;;5119473;27;20207;-73
2021/12/11 01:46:00;;;;;;;60.17;27.73;;;4.20;99.90;;;;;;5119558;27;20230;-74
2021/12/11 01:48:32;;;;;;;58.95;25.27;;;4.10;99.90;;;;;;5119914;27;20206;-73
2021/12/11 01:51:04;;;;;;;57.88;27.77;;;4.10;99.90;;;;;;5119837;27;20217;-74
2021/12/11 01:53:38;;;;;;;56.95;27.90;;;4.10;99.90;;;;;;5119576;28;20210;-74
2021/12/11 01:56:10;;;;;;;49.47;25.20;;;4.10;99.90;;;;;;5119302;27;20672;-70
2021/12/11 01:58:43;;;;;;;62.38;28.20;;;4.10;99.90;;;;;;5119380;27;20213;-71
2021/12/11 02:01:15;;;;;;;52.85;26.52;;;4.10;99.90;;;;;;5119774;27;20765;-72
2021/12/11 02:03:44;;;;;;;51.28;25.98;;;4.10;99.90;;;;;;5119545;27;20260;-70
2021/12/11 02:06:13;;;;;;;56.30;26.17;;;4.10;99.90;;;;;;5119690;28;20229;-70
2021/12/11 02:08:43;;;;;;;62.17;29.20;;;4.10;99.90;;;;;;5119052;27;20205;-71
2021/12/11 02:11:16;;;;;;;59.47;27.45;;;4.10;99.90;;;;;;5119820;27;20202;-72
2021/12/11 02:13:50;;;;;;;58.13;26.33;;;4.10;99.90;;;;;;5119162;27;20221;-71
2021/12/11 02:16:21;;;;;;;57.45;27.30;;;4.10;99.90;;;;;;5119159;27;20198;-68
2021/12/11 02:18:54;;;;;;;51.78;25.92;;;4.10;99.90;;;;;;5118991;28;20905;-66
2021/12/11 02:21:26;;;;;;;49.05;25.05;;;4.10;99.90;;;;;;5118994;27;20199;-68
2021/12/11 02:24:00;;;;;;;58.58;25.90;;;4.10;99.90;;;;;;5119196;28;20685;-66
2021/12/11 02:26:31;;;;;;;49.85;24.50;;;4.10;99.90;;;;;;5110278;27;20619;-69
2021/12/11 02:29:04;;;;;;;49.10;24.90;;;4.10;99.90;;;;;;5106199;28;20215;-66
2021/12/11 02:31:37;;;;;;;56.28;26.25;;;4.10;99.90;;;;;;5120353;27;20199;-67
2021/12/11 02:34:10;;;;;;;55.63;26.58;;;4.10;99.90;;;;;;5120604;28;20203;-67
2021/12/11 02:36:42;;;;;;;58.85;28.33;;;4.00;99.90;;;;;;5125165;27;20199;-68
2021/12/11 02:39:16;;;;;;;53.10;24.73;;;4.00;99.90;;;;;;5148305;27;20302;-70
2021/12/11 02:41:50;;;;;;;51.72;26.08;;;4.00;99.90;;;;;;5121499;28;20192;-69
2021/12/11 02:44:26;;;;;;;58.00;27.23;;;4.00;99.90;;;;;;5122507;28;20188;-69
2021/12/11 02:46:59;;;;;;;57.03;25.50;;;4.00;99.90;;;;;;5108646;27;20849;-69
2021/12/11 02:49:33;;;;;;;50.88;27.13;;;4.00;99.90;;;;;;5108668;28;20211;-70
2021/12/11 02:52:07;;;;;;;47.00;26.30;;;4.00;99.90;;;;;;5110632;28;20197;-69
2021/12/11 02:54:39;;;;;;;52.90;27.20;;;4.10;99.90;;;;;;5109901;28;20201;-71
2021/12/11 02:57:12;;;;;;;55.60;28.33;;;4.10;99.90;;;;;;5109423;27;20195;-71
2021/12/11 02:59:43;;;;;;;56.55;25.67;;;4.10;99.90;;;;;;5108527;27;20849;-69
2021/12/11 03:02:16;;;;;;;56.00;26.23;;;4.00;99.90;;;;;;5113153;27;20281;-70
2021/12/11 03:04:50;;;;;;;60.08;27.17;;;3.90;99.90;;;;;;5113776;27;20227;-69
2021/12/11 03:07:23;;;;;;;54.95;28.73;;;3.90;99.90;;;;;;5112508;27;20225;-69
2021/12/11 03:09:56;;;;;;;59.60;26.20;;;3.90;99.90;;;;;;5111647;27;20207;-70
2021/12/11 03:12:25;;;;;;;54.42;25.70;;;3.90;99.90;;;;;;5112152;27;20287;-70
2021/12/11 03:14:54;;;;;;;56.00;26.33;;;3.90;99.90;;;;;;5110980;27;20188;-70
2021/12/11 03:17:27;;;;;;;56.22;25.50;;;3.90;99.90;;;;;;5110959;27;20195;-70
2021/12/11 03:19:55;;;;;;;54.17;28.42;;;4.00;99.90;;;;;;5114351;27;20209;-71
2021/12/11 03:22:27;;;;;;;53.05;26.45;;;4.00;99.90;;;;;;5123073;27;20228;-68
2021/12/11 03:24:57;;;;;;;47.00;25.65;;;3.90;99.90;;;;;;5122474;27;20195;-70
2021/12/11 03:27:26;;;;;;;55.92;26.65;;;3.90;99.90;;;;;;5121737;27;20218;-69
2021/12/11 03:29:54;;;;;;;51.47;24.38;;;4.00;99.90;;;;;;5122264;27;20221;-70
2021/12/11 03:32:23;;;;;;;56.60;27.85;;;3.90;99.90;;;;;;5122719;27;20210;-70
2021/12/11 03:34:52;;;;;;;49.13;24.73;;;4.00;99.90;;;;;;5118687;27;20926;-69
2021/12/11 03:37:21;;;;;;;59.83;26.85;;;4.00;99.90;;;;;;5121967;27;20866;-69
2021/12/11 03:39:52;;;;;;;58.42;27.70;;;4.00;99.90;;;;;;5121854;27;20740;-69
2021/12/11 03:42:25;;;;;;;50.33;24.85;;;3.90;99.90;;;;;;5115821;27;20214;-71
2021/12/11 03:44:53;;;;;;;51.65;23.75;;;3.90;99.90;;;;;;5122912;27;20207;-75
2021/12/11 03:47:25;;;;;;;58.30;27.70;;;3.80;99.90;;;;;;5121854;27;20261;-66
2021/12/11 03:49:53;;;;;;;51.97;25.05;;;3.70;99.90;;;;;;5121383;27;20227;-67
2021/12/11 03:52:21;;;;;;;57.42;29.10;;;3.70;99.90;;;;;;5121717;27;20771;-69
2021/12/11 03:54:53;;;;;;;49.50;26.42;;;3.70;99.90;;;;;;5121670;27;20199;-69
2021/12/11 03:57:28;;;;;;;51.85;26.65;;;3.70;99.90;;;;;;5121599;27;20199;-68
2021/12/11 03:59:57;;;;;;;50.85;25.58;;;3.60;99.90;;;;;;5121998;27;20312;-69
2021/12/11 04:02:31;;;;;;;48.75;25.83;;;3.70;99.90;;;;;;5134238;27;20194;-69
2021/12/11 04:05:03;;;;;;;52.25;25.08;;;3.60;99.90;;;;;;5125664;27;20628;-66
2021/12/11 04:07:35;;;;;;;55.17;24.85;;;3.60;99.90;;;;;;5121376;27;20279;-67
2021/12/11 04:10:04;;;;;;;48.85;25.13;;;3.60;99.90;;;;;;5121512;27;20223;-68
2021/12/11 04:12:33;;;;;;;49.78;25.05;;;3.70;99.90;;;;;;5120414;27;20284;-69
2021/12/11 04:15:02;;;;;;;52.50;27.27;;;3.70;99.90;;;;;;5120969;27;20209;-67
2021/12/11 04:17:29;;;;;;;54.10;26.30;;;3.60;99.90;;;;;;5120917;27;20199;-67
2021/12/11 04:20:01;;;;;;;63.00;27.70;;;3.60;99.90;;;;;;5120830;27;20219;-69
2021/12/11 04:22:29;;;;;;;52.20;26.55;;;3.50;99.90;;;;;;5121044;27;20210;-69
2021/12/11 04:24:57;;;;;;;56.55;26.73;;;3.40;99.90;;;;;;5121093;27;20229;-70
2021/12/11 04:27:27;;;;;;;50.83;24.52;;;3.30;99.90;;;;;;5120687;27;20344;-69
2021/12/11 04:29:56;;;;;;;56.00;25.50;;;3.30;99.90;;;;;;5120900;27;20910;-68
2021/12/11 04:32:28;;;;;;;49.15;25.67;;;3.30;99.90;;;;;;5120876;27;20199;-67
2021/12/11 04:34:56;;;;;;;45.13;23.85;;;3.30;99.90;;;;;;5121323;27;20198;-68
2021/12/11 04:37:28;;;;;;;61.33;26.63;;;3.40;99.90;;;;;;5120602;27;20187;-68
2021/12/11 04:40:02;;;;;;;46.35;23.50;;;3.40;99.90;;;;;;5120666;27;20285;-68
2021/12/11 04:42:43;;;;;;;58.05;24.75;;;3.50;99.90;;;;;;5120723;27;20391;-66
2021/12/11 04:45:16;;;;;;;57.90;26.67;;;3.50;99.90;;;;;;5120750;27;20673;-69
2021/12/11 04:47:50;;;;;;;52.53;25.13;;;3.60;99.90;;;;;;5120907;27;20214;-66
2021/12/11 04:50:28;;;;;;;51.28;24.73;;;3.60;99.90;;;;;;5120527;27;20890;-69
2021/12/11 04:52:58;;;;;;;53.45;26.02;;;3.70;99.90;;;;;;5120574;27;20314;-68
2021/12/11 04:55:48;;;;;;;52.40;24.77;;;3.70;99.90;;;;;;5121302;27;20234;-69
2021/12/11 04:58:40;;;;;;;62.75;25.95;;;3.70;99.90;;;;;;5121006;27;20211;-69
2021/12/11 05:01:28;;;;;;;46.53;23.95;;;3.70;99.90;;;;;;5122178;27;20279;-70
2021/12/11 05:04:15;;;;;;;47.65;23.65;;;3.80;99.90;;;;;;5122161;27;20199;-69
2021/12/11 05:06:53;;;;;;;48.70;23.65;;;3.80;99.90;;;;;;5140692;27;20179;-68
2021/12/11 05:09:33;;;;;;;47.97;23.30;;;3.80;99.90;;;;;;5141786;27;20225;-69
2021/12/11 05:12:13;;;;;;;47.88;22.58;;;3.90;99.90;;;;;;5128844;27;20229;-67
2021/12/11 05:14:42;;;;;;;53.55;25.20;;;3.90;99.90;;;;;;5127084;27;20208;-69
2021/12/11 05:17:12;;;;;;;47.17;23.63;;;3.90;99.90;;;;;;5126555;27;20293;-70
2021/12/11 05:19:42;;;;;;;51.15;23.55;;;3.90;99.90;;;;;;5129082;27;20805;-70
2021/12/11 05:22:10;;;;;;;44.95;23.08;;;3.90;99.90;;;;;;5131052;27;20199;-70
2021/12/11 05:24:41;;;;;;;49.40;23.00;;;3.90;99.90;;;;;;5132848;27;20286;-68
2021/12/11 05:27:09;;;;;;;48.80;24.05;;;3.90;99.90;;;;;;5134926;27;20217;-71
2021/12/11 05:29:38;;;;;;;45.40;22.80;;;3.90;99.90;;;;;;5133597;27;20219;-71
2021/12/11 05:32:08;;;;;;;41.90;22.40;;;3.90;99.90;;;;;;5127027;27;20679;-68
2021/12/11 05:34:41;;;;;;;40.75;21.38;;;3.90;99.90;;;;;;5120818;27;20203;-69
2021/12/11 05:37:08;;;;;;;41.90;21.60;;;3.90;99.90;;;;;;5122500;27;20210;-67
2021/12/11 05:39:37;;;;;;;47.65;23.25;;;3.80;99.90;;;;;;5135844;27;20215;-69
2021/12/11 05:42:06;;;;;;;41.25;23.08;;;3.80;99.90;;;;;;5126240;27;20205;-74
2021/12/11 05:44:34;;;;;;;47.38;23.38;;;3.60;99.90;;;;;;5123323;27;20882;-72
2021/12/11 05:47:04;;;;;;;51.15;23.88;;;3.50;99.90;;;;;;5124261;27;20194;-73
2021/12/11 05:49:33;;;;;;;50.33;24.88;;;3.40;99.90;;;;;;5122266;27;20237;-70
2021/12/11 05:52:05;;;;;;;44.90;23.85;;;3.20;99.90;;;;;;5122419;27;20210;-71
2021/12/11 05:54:34;;;;;;;43.97;22.00;;;3.10;99.90;;;;;;5119758;27;20194;-70
2021/12/11 05:57:06;;;;;;;45.83;22.42;;;3.00;99.90;;;;;;5120272;27;20195;-71
2021/12/11 05:59:35;;;;;;;44.53;22.38;;;2.90;99.90;;;;;;5116978;27;20279;-71
2021/12/11 06:02:08;;;;;;;48.03;22.33;;;2.80;99.90;;;;;;5120083;28;20196;-70
2021/12/11 06:04:38;;;;;;;46.00;24.25;;;2.80;99.90;;;;;;5120777;27;20726;-71
2021/12/11 06:07:10;;;;;;;56.15;23.75;;;2.70;99.90;;;;;;5119077;27;20214;-71
2021/12/11 06:09:40;;;;;;;46.35;22.15;;;2.70;99.90;;;;;;5119750;27;20218;-71
2021/12/11 06:12:12;;;;;;;47.55;24.15;;;2.70;99.90;;;;;;5119865;27;20227;-69
2021/12/11 06:14:42;;;;;;;51.13;25.83;;;2.70;99.90;;;;;;5119847;27;20214;-70
2021/12/11 06:17:15;;;;;;;39.90;20.90;;;2.70;99.90;;;;;;5119596;28;20287;-71
2021/12/11 06:19:50;;;;;;;49.08;22.80;;;2.70;99.90;;;;;;5119722;27;20215;-70
2021/12/11 06:22:20;;;;;;;45.85;21.30;;;2.60;99.90;;;;;;5119205;28;20809;-71
2021/12/11 06:24:49;;;;;;;49.38;23.73;;;2.50;99.90;;;;;;5118716;27;20199;-70
2021/12/11 06:27:17;;;;;;;42.03;23.08;;;2.50;99.90;;;;;;5119248;27;20952;-72
2021/12/11 06:29:45;;;;;;;50.88;22.02;;;2.50;99.90;;;;;;5119084;28;20302;-69
2021/12/11 06:32:13;;;;;;;45.35;21.55;;;2.40;99.90;;;;;;5119311;28;20205;-70
2021/12/11 06:34:41;;;;;;;43.72;21.63;;;2.40;99.90;;;;;;5118542;27;20233;-71
2021/12/11 06:37:11;;;;;;;49.35;23.40;;;2.30;99.90;;;;;;5123104;27;20203;-70
2021/12/11 06:39:40;;;;;;;44.75;20.95;;;2.30;99.90;;;;;;5123154;27;20215;-70
2021/12/11 06:42:16;;;;;;;53.30;21.98;;;2.10;99.90;;;;;;5123415;27;20198;-69
2021/12/11 06:44:45;;;;;;;42.90;22.70;;;2.00;99.90;;;;;;5122985;27;20195;-70
2021/12/11 06:47:14;;;;;;;43.40;20.75;;;1.90;99.90;;;;;;5123513;27;20199;-70
2021/12/11 06:49:44;;;;;;;43.65;22.75;;;1.90;99.90;;;;;;5122514;27;20249;-70
2021/12/11 06:52:14;;;;;;;43.55;23.58;;;1.80;99.90;;;;;;5122976;27;20203;-69
2021/12/11 06:54:44;;;;;;;46.72;22.35;;;1.80;99.90;;;;;;5122859;27;20203;-68
2021/12/11 06:57:12;;;;;;;45.45;22.02;;;1.70;99.90;;;;;;5124136;27;20287;-68
2021/12/11 06:59:40;;;;;;;53.05;22.85;;;1.60;99.90;;;;;;5123018;27;20636;-67
2021/12/11 07:02:08;;;;;;;44.40;20.65;;;1.60;99.90;;;;;;5144149;27;20184;-69
2021/12/11 07:04:37;;;;;;;43.15;21.27;;;1.50;99.90;;;;;;5126243;27;20203;-70
2021/12/11 07:07:06;;;;;;;38.45;19.73;;;1.50;99.90;;;;;;5124230;27;20203;-64
2021/12/11 07:09:34;;;;;;;45.47;21.20;;;1.40;99.90;;;;;;5105068;27;20716;-68
2021/12/11 07:12:04;;;;;;;45.63;20.60;;;1.40;99.90;;;;;;5102734;27;20290;-67
2021/12/11 07:14:32;;;;;;;47.47;22.83;;;1.50;99.90;;;;;;5101848;28;20213;-67
2021/12/11 07:17:00;;;;;;;41.60;21.23;;;1.50;99.90;;;;;;5108027;27;20199;-66
2021/12/11 07:19:28;;;;;;;42.28;19.75;;;1.50;99.90;;;;;;5114201;27;20208;-67
2021/12/11 07:21:59;;;;;;;47.30;22.27;;;1.50;99.90;;;;;;5107701;27;20667;-68
2021/12/11 07:24:33;;;;;;;45.65;21.98;;;1.60;99.90;;;;;;5112586;27;20199;-69
2021/12/11 07:27:09;;;;;;;47.10;20.20;;;1.60;99.90;;;;;;5113347;27;20199;-67
2021/12/11 07:29:41;;;;;;;43.80;20.75;;;1.70;99.90;;;;;;5114845;27;20221;-69
2021/12/11 07:32:11;;;;;;;42.35;20.98;;;1.70;99.90;;;;;;5116534;27;20195;-69
2021/12/11 07:34:41;;;;;;;44.60;21.70;;;1.80;99.90;;;;;;5121350;27;20294;-69
2021/12/11 07:37:09;;;;;;;41.38;19.95;;;1.80;99.90;;;;;;5128108;27;20192;-69
2021/12/11 07:39:37;;;;;;;50.15;23.33;;;1.90;99.90;;;;;;5113773;27;20207;-67
2021/12/11 07:42:06;;;;;;;47.75;21.45;;;1.90;99.90;;;;;;5112076;27;20199;-69
2021/12/11 07:44:36;;;;;;;38.92;18.92;;;2.00;99.90;;;;;;5109939;27;20195;-69
2021/12/11 07:47:05;;;;;;;36.28;20.90;;;2.00;99.90;;;;;;5111480;27;20263;-67
2021/12/11 07:49:33;;;;;;;39.22;20.42;;;2.10;99.90;;;;;;5109491;27;20582;-69
2021/12/11 07:52:02;;;;;;;39.25;20.92;;;2.20;99.90;;;;;;5111696;27;20199;-68
2021/12/11 07:54:30;;;;;;;39.35;20.42;;;2.30;99.90;;;;;;5112323;27;20286;-67
2021/12/11 07:56:58;;;;;;;45.10;20.48;;;2.30;99.90;;;;;;5110785;27;20202;-63
2021/12/11 07:59:27;;;;;;;43.30;20.80;;;2.40;99.90;;;;;;5111034;27;20377;-64
2021/12/11 08:01:56;;;;;;;34.65;19.73;;;2.50;99.90;;;;;;5112923;27;20825;-64
2021/12/11 08:04:25;;;;;;;42.10;20.45;;;2.60;99.90;;;;;;5111594;27;20187;-63
2021/12/11 08:06:53;;;;;;;36.95;20.67;;;2.60;99.90;;;;;;5111217;27;20768;-65
2021/12/11 08:09:23;;;;;;;45.38;20.15;;;2.70;99.90;;;;;;5108771;27;20218;-66
2021/12/11 08:11:52;;;;;;;38.97;19.65;;;2.80;99.90;;;;;;5111987;27;20452;-64
2021/12/11 08:14:20;;;;;;;36.55;19.52;;;2.90;99.90;;;;;;5110412;27;20196;-63
2021/12/11 08:16:52;;;;;;;40.42;19.40;;;3.00;99.90;;;;;;5111095;27;20326;-63
2021/12/11 08:19:24;;;;;;;39.95;19.48;;;3.10;99.90;;;;;;5111373;27;20287;-64
2021/12/11 08:21:56;;;;;;;38.88;20.27;;;3.20;99.90;;;;;;5110346;27;20196;-64
2021/12/11 08:24:27;;;;;;;38.92;20.50;;;3.20;99.90;;;;;;5112645;27;20198;-65
2021/12/11 08:26:57;;;;;;;34.05;19.58;;;3.30;99.90;;;;;;5113439;27;20191;-65
2021/12/11 08:29:25;;;;;;;39.58;18.73;;;3.30;99.90;;;;;;5112130;27;20226;-65
2021/12/11 08:31:57;;;;;;;35.47;18.42;;;3.40;99.90;;;;;;5111749;27;20260;-65
2021/12/11 08:34:27;;;;;;;37.42;20.17;;;3.50;99.90;;;;;;5112561;27;20668;-65
2021/12/11 08:36:55;;;;;;;33.70;19.65;;;3.50;99.90;;;;;;5113764;27;20190;-65
2021/12/11 08:39:23;;;;;;;34.58;19.70;;;3.60;99.90;;;;;;5110544;27;20298;-64
2021/12/11 08:41:53;;;;;;;34.63;19.63;;;3.60;99.90;;;;;;5108984;27;20205;-64
2021/12/11 08:44:23;;;;;;;32.35;18.05;;;3.70;99.90;;;;;;5111600;27;20773;-63
2021/12/11 08:46:54;;;;;;;33.47;19.67;;;3.80;99.90;;;;;;5112018;27;20195;-64
2021/12/11 08:49:28;;;;;;;34.05;18.85;;;3.80;99.90;;;;;;5109333;27;20219;-70
2021/12/11 08:51:59;;;;;;;36.30;17.02;;;3.90;99.90;;;;;;5115355;27;20199;-69
2021/12/11 08:54:30;;;;;;;32.78;17.67;;;3.90;99.90;;;;;;5123760;27;20190;-71
2021/12/11 08:57:04;;;;;;;28.92;18.30;;;4.00;99.90;;;;;;5116891;27;20796;-71
2021/12/11 08:59:34;;;;;;;34.20;18.25;;;4.10;99.90;;;;;;5113894;27;20229;-71
2021/12/11 09:02:07;;;;;;;33.88;18.08;;;4.20;99.90;;;;;;5103869;27;20197;-71
2021/12/11 09:04:40;;;;;;;36.70;18.90;;;4.20;99.90;;;;;;5104747;27;20351;-70
2021/12/11 09:07:19;;;;;;;26.48;16.60;;;4.20;99.90;;;;;;5104531;27;20578;-70
2021/12/11 09:09:52;;;;;;;29.70;16.67;;;4.30;99.90;;;;;;5104970;27;20847;-71
2021/12/11 09:12:25;;;;;;;31.10;16.25;;;4.30;99.90;;;;;;5114711;27;20670;-70
2021/12/11 09:14:59;;;;;;;31.15;16.88;;;4.40;99.90;;;;;;5104078;27;20195;-70
2021/12/11 09:17:32;;;;;;;34.80;17.65;;;4.40;99.90;;;;;;5109948;27;20810;-70
2021/12/11 09:20:09;;;;;;;31.33;17.17;;;4.40;99.90;;;;;;5113729;27;20217;-70
2021/12/11 09:22:42;;;;;;;30.48;16.58;;;4.40;99.90;;;;;;5113940;27;20756;-70
2021/12/11 09:25:14;;;;;;;29.67;16.67;;;4.50;99.90;;;;;;5114421;27;20207;-68
2021/12/11 09:27:50;;;;;;;32.97;16.30;;;4.50;99.90;;;;;;5103074;27;20195;-70
2021/12/11 09:30:23;;;;;;;29.95;16.63;;;4.60;99.90;;;;;;5113034;27;20229;-70
2021/12/11 09:32:54;;;;;;;31.20;16.70;;;4.60;99.90;;;;;;5109898;27;20782;-70
2021/12/11 09:35:29;;;;;;;30.08;17.27;;;4.60;99.90;;;;;;5112297;27;20225;-70
2021/12/11 09:38:01;;;;;;;31.10;18.30;;;4.60;99.90;;;;;;5113134;27;20609;-70
2021/12/11 09:40:54;;;;;;;33.70;17.35;;;4.60;99.90;;;;;;5106899;27;20699;-69
2021/12/11 09:43:37;;;;;;;31.98;16.60;;;4.60;99.90;;;;;;5102882;28;20446;-70
2021/12/11 09:46:08;;;;;;;31.63;17.25;;;4.70;99.90;;;;;;5104359;27;20199;-70
2021/12/11 09:48:39;;;;;;;37.00;18.65;;;4.70;99.90;;;;;;5107581;27;20439;-65
2021/12/11 09:51:13;;;;;;;30.23;16.52;;;4.70;99.90;;;;;;5110097;27;20227;-66
2021/12/11 09:53:46;;;;;;;34.40;16.65;;;4.80;99.90;;;;;;5108977;27;20191;-65
2021/12/11 09:56:22;;;;;;;32.13;16.90;;;4.90;99.90;;;;;;5111651;27;20207;-65
2021/12/11 09:59:00;;;;;;;32.25;17.33;;;4.90;99.90;;;;;;5108156;27;20223;-65
2021/12/11 10:01:31;;;;;;;30.15;16.67;;;5.00;99.90;;;;;;5111669;27;20286;-65
2021/12/11 10:04:05;;;;;;;29.90;17.30;;;5.00;99.90;;;;;;5112482;27;20195;-65
2021/12/11 10:06:42;;;;;;;28.95;16.90;;;5.10;99.90;;;;;;5110822;28;20208;-65
2021/12/11 10:09:19;;;;;;;28.73;16.60;;;5.20;99.90;;;;;;5133833;27;20249;-66
2021/12/11 10:11:59;;;;;;;30.42;17.10;;;5.20;99.90;;;;;;5122444;27;20370;-65
2021/12/11 10:14:33;;;;;;;31.88;18.77;;;5.20;99.90;;;;;;5123686;27;20191;-66
2021/12/11 10:17:07;;;;;;;28.13;16.40;;;5.20;99.90;;;;;;5114983;27;20792;-65
2021/12/11 10:19:36;;;;;;;31.17;15.10;;;5.10;99.90;;;;;;5113936;27;20221;-66
2021/12/11 10:22:09;;;;;;;25.92;16.30;;;5.10;99.90;;;;;;5115716;27;20282;-65
2021/12/11 10:24:39;;;;;;;28.75;15.95;;;5.00;99.90;;;;;;5115692;27;20195;-65
2021/12/11 10:27:10;;;;;;;33.08;17.05;;;4.90;99.90;;;;;;5112236;27;20192;-65
2021/12/11 10:29:41;;;;;;;27.52;17.17;;;4.90;99.90;;;;;;5112180;27;20228;-65
2021/12/11 10:32:12;;;;;;;28.67;16.70;;;4.90;99.90;;;;;;5111551;27;20253;-65
2021/12/11 10:34:44;;;;;;;24.65;14.88;;;5.00;99.90;;;;;;5116694;27;20279;-65
2021/12/11 10:37:16;;;;;;;28.08;16.17;;;5.00;99.90;;;;;;5116868;27;20204;-63
2021/12/11 10:39:49;;;;;;;27.25;15.70;;;5.00;99.90;;;;;;5123043;27;20211;-65
2021/12/11 10:42:17;;;;;;;28.20;16.67;;;4.90;99.90;;;;;;5115801;27;20190;-64
2021/12/11 10:44:49;;;;;;;25.63;14.50;;;5.00;99.90;;;;;;5119776;27;20789;-64
2021/12/11 10:47:19;;;;;;;30.00;16.02;;;5.00;99.90;;;;;;5117791;27;20210;-65
2021/12/11 10:50:12;;;;;;;23.08;15.32;;;5.00;99.90;;;;;;5110912;27;20455;-65
2021/12/11 10:52:41;;;;;;;21.38;14.02;;;5.00;99.90;;;;;;5123703;27;20287;-65
2021/12/11 10:55:14;;;;;;;29.70;15.95;;;5.00;99.90;;;;;;5120184;27;20196;-65
2021/12/11 10:57:42;;;;;;;23.52;14.98;;;5.10;99.90;;;;;;5102500;28;20806;-65
2021/12/11 11:00:16;;;;;;;22.52;14.48;;;5.10;99.90;;;;;;5102215;28;20224;-67
2021/12/11 11:02:44;;;;;;;27.83;13.90;;;5.10;99.90;;;;;;5103042;28;20183;-64
2021/12/11 11:05:17;;;;;;;25.60;14.73;;;5.10;99.90;;;;;;5102912;28;20303;-65
2021/12/11 11:07:47;;;;;;;22.52;13.82;;;5.10;99.90;;;;;;5102822;28;20777;-65
2021/12/11 11:10:18;;;;;;;21.98;13.48;;;5.10;99.90;;;;;;5105978;27;20234;-64
2021/12/11 11:12:49;;;;;;;24.52;14.73;;;5.10;99.90;;;;;;5110071;27;20223;-65
2021/12/11 11:15:23;;;;;;;21.83;13.90;;;5.20;99.90;;;;;;5103669;28;20229;-64
2021/12/11 11:17:52;;;;;;;24.08;14.27;;;5.20;99.90;;;;;;5114604;27;20195;-65
2021/12/11 11:20:23;;;;;;;22.83;13.55;;;5.20;99.90;;;;;;5114884;27;20227;-65
2021/12/11 11:22:52;;;;;;;27.33;13.90;;;5.20;99.90;;;;;;5103621;28;20912;-65
2021/12/11 11:25:24;;;;;;;26.40;14.75;;;5.20;99.90;;;;;;5123208;27;20221;-66
2021/12/11 11:27:57;;;;;;;24.60;13.70;;;5.20;99.90;;;;;;5122701;27;20255;-65
2021/12/11 11:30:32;;;;;;;24.65;13.10;;;5.20;99.90;;;;;;5102242;28;20251;-65
2021/12/11 11:33:00;;;;;;;19.70;12.77;;;5.20;99.90;;;;;;5102606;28;20765;-64
2021/12/11 11:35:33;;;;;;;21.33;14.27;;;5.20;99.90;;;;;;5104345;28;20200;-63
2021/12/11 11:38:03;;;;;;;24.80;15.02;;;5.20;99.90;;;;;;5103815;28;20203;-63
2021/12/11 11:40:37;;;;;;;26.27;16.17;;;5.20;99.90;;;;;;5103789;28;20416;-64
2021/12/11 11:43:06;;;;;;;22.80;14.85;;;5.30;99.90;;;;;;5105030;28;20200;-65
2021/12/11 11:45:36;;;;;;;24.35;15.27;;;5.30;99.90;;;;;;5114942;28;20199;-64
2021/12/11 11:48:06;;;;;;;21.90;13.65;;;5.30;99.90;;;;;;5102898;27;20242;-65
2021/12/11 11:50:38;;;;;;;22.15;14.05;;;5.20;99.90;;;;;;5102423;28;20247;-64
2021/12/11 11:53:06;;;;;;;21.00;12.95;;;5.30;99.90;;;;;;5102878;28;20227;-65
2021/12/11 11:55:38;;;;;;;19.83;14.55;;;5.30;99.90;;;;;;5101714;28;20278;-65
2021/12/11 11:58:07;;;;;;;19.25;12.90;;;5.30;99.90;;;;;;5101598;28;20208;-65
2021/12/11 12:00:43;;;;;;;21.40;14.52;;;5.40;99.90;;;;;;5100424;28;20296;-63
2021/12/11 12:03:12;;;;;;;21.08;13.88;;;5.40;99.90;;;;;;5101892;28;20199;-65
2021/12/11 12:05:44;;;;;;;21.67;13.85;;;5.50;99.90;;;;;;5102600;27;20256;-64
2021/12/11 12:08:16;;;;;;;17.75;12.93;;;5.60;99.90;;;;;;5101943;28;20485;-64
2021/12/11 12:10:47;;;;;;;20.48;13.65;;;5.70;99.90;;;;;;5108351;27;20207;-64
2021/12/11 12:13:19;;;;;;;17.60;13.73;;;5.90;99.90;;;;;;5104079;27;20260;-64
2021/12/11 12:15:52;;;;;;;20.17;13.40;;;5.80;99.90;;;;;;5109712;27;20195;-65
2021/12/11 12:18:22;;;;;;;18.25;13.45;;;5.80;99.90;;;;;;5101394;28;20579;-65
2021/12/11 12:20:51;;;;;;;21.60;13.98;;;5.80;99.90;;;;;;5101607;28;20224;-65
2021/12/11 12:23:20;;;;;;;19.73;13.48;;;5.80;99.90;;;;;;5102490;28;20199;-66
2021/12/11 12:25:51;;;;;;;16.52;12.00;;;5.80;99.90;;;;;;5101729;28;20290;-65
2021/12/11 12:28:21;;;;;;;15.95;12.25;;;5.80;99.90;;;;;;5102293;28;20203;-66
2021/12/11 12:30:53;;;;;;;17.85;11.82;;;5.80;99.90;;;;;;5102407;28;20222;-65
2021/12/11 12:33:22;;;;;;;19.55;12.38;;;5.80;99.90;;;;;;5106373;27;20347;-65
2021/12/11 12:35:52;;;;;;;21.15;12.18;;;5.80;99.90;;;;;;5123191;27;20200;-65
2021/12/11 12:38:22;;;;;;;22.48;12.27;;;5.80;99.90;;;;;;5122294;27;20195;-65
2021/12/11 12:40:59;;;;;;;20.33;11.82;;;5.80;99.90;;;;;;5115607;27;20309;-65
2021/12/11 12:46:23;;;;;;;23.63;12.55;;;5.80;99.90;;;;;;5125125;27;20199;-65
2021/12/11 12:48:51;;;;;;;18.17;11.90;;;5.90;99.90;;;;;;5120929;27;20302;-65
2021/12/11 12:51:20;;;;;;;18.73;11.13;;;5.90;99.90;;;;;;5112680;27;20205;-65
2021/12/11 12:53:49;;;;;;;19.27;12.82;;;5.90;99.90;;;;;;5111728;27;20184;-65
2021/12/11 12:56:20;;;;;;;17.98;11.90;;;5.90;99.90;;;;;;5120879;27;20297;-65
2021/12/11 12:59:07;;;;;;;18.10;11.10;;;6.00;99.90;;;;;;5122149;27;20254;-66
2021/12/11 13:01:41;;;;;;;16.90;11.88;;;6.00;99.90;;;;;;5121385;27;20233;-64